Smithville, Illinois
Current Conditions -  °F | °C
As of 8:24 PM on Saturday 22 Nov 2014 (Local Time) from KPIA Reporting Station
Overcast Overcast  
Wind Chill: 54°   Ceiling: 5500
Heat Index: 54°   Visibility: 10mi
Dew Point: 47°   Wind: 16mph
Humidity: 77%   Direction: 190°S
Pressure: 29.87"   Gusts: NA
Location:  40.6926°N, 89.794°W
Report Text: KPIA 230224Z 19014KT 10SM SCT020 OVC055 12/08 A2987 RMK AO2 T01220083
Loading
Personal Weather Stations






























Interactive Weather Map New forecast layout! Learn more

10-Day Weather Forecast

Advertisements
Track Severe Weather on mobile